createdAt,value
2018-01-15T00:01:00.949Z,7.57
2018-01-15T00:03:29.973Z,8.13
2018-01-15T00:05:58.261Z,8.77
2018-01-15T00:08:27.334Z,7.60
2018-01-15T00:10:55.602Z,7.33
2018-01-15T00:13:23.863Z,9.47
2018-01-15T00:15:52.149Z,7.77
2018-01-15T00:18:20.404Z,8.50
2018-01-15T00:20:49.427Z,8.73
2018-01-15T00:23:18.476Z,8.23
2018-01-15T00:25:46.727Z,8.00
2018-01-15T00:28:14.997Z,6.53
2018-01-15T00:30:44.032Z,7.57
2018-01-15T00:33:12.356Z,9.10
2018-01-15T00:35:40.664Z,8.33
2018-01-15T00:38:09.819Z,7.27
2018-01-15T00:40:38.124Z,8.00
2018-01-15T00:43:06.461Z,8.93
2018-01-15T00:45:35.498Z,8.30
2018-01-15T00:48:03.764Z,8.43
2018-01-15T00:50:32.794Z,6.87
2018-01-15T00:53:01.084Z,8.97
2018-01-15T00:55:30.108Z,9.17
2018-01-15T00:57:58.428Z,7.53
2018-01-15T01:00:26.700Z,8.77
2018-01-15T01:02:54.975Z,7.83
2018-01-15T01:05:23.237Z,8.70
2018-01-15T01:07:52.271Z,8.17
2018-01-15T01:10:20.528Z,8.33
2018-01-15T01:12:50.082Z,9.07
2018-01-15T01:15:18.347Z,7.73
2018-01-15T01:17:46.634Z,9.17
2018-01-15T01:20:15.667Z,9.30
2018-01-15T01:22:43.951Z,8.33
2018-01-15T01:25:12.236Z,7.87
2018-01-15T01:27:40.577Z,7.30
2018-01-15T01:30:08.906Z,9.00
2018-01-15T01:32:37.813Z,7.93
2018-01-15T01:35:06.067Z,7.70
2018-01-15T01:37:34.347Z,8.30
2018-01-15T01:40:02.617Z,8.13
2018-01-15T01:42:30.893Z,8.50
2018-01-15T01:44:59.176Z,9.27
2018-01-15T01:47:27.483Z,8.37
2018-01-15T01:49:55.694Z,8.77
2018-01-15T01:52:23.947Z,9.43
2018-01-15T01:54:52.220Z,8.27
2018-01-15T01:57:20.491Z,9.97
2018-01-15T01:59:49.523Z,7.77
2018-01-15T02:02:17.794Z,7.23
2018-01-15T02:04:46.815Z,8.67
2018-01-15T02:07:15.067Z,8.90
2018-01-15T02:09:44.577Z,8.37
2018-01-15T02:12:12.853Z,9.97
2018-01-15T02:14:41.239Z,9.53
2018-01-15T02:17:09.592Z,8.97
2018-01-15T02:19:37.885Z,9.10
2018-01-15T02:22:06.164Z,8.63
2018-01-15T02:24:35.283Z,8.73
2018-01-15T02:27:03.540Z,8.47
2018-01-15T02:29:32.584Z,9.13
2018-01-15T02:32:00.840Z,9.43
2018-01-15T02:34:29.943Z,9.47
2018-01-15T02:36:58.976Z,9.93
2018-01-15T02:39:27.296Z,10.53
2018-01-15T02:41:55.573Z,9.40
2018-01-15T02:44:23.842Z,9.10
2018-01-15T02:46:52.108Z,9.00
2018-01-15T02:49:21.154Z,10.67
2018-01-15T02:51:49.416Z,10.67
2018-01-15T02:54:18.451Z,11.50
2018-01-15T02:56:46.704Z,10.80
2018-01-15T02:59:15.751Z,10.50
2018-01-15T03:01:44.095Z,9.73
2018-01-15T03:04:12.466Z,9.43
2018-01-15T03:06:41.611Z,10.90
2018-01-15T03:09:10.000Z,10.53
2018-01-15T03:11:38.524Z,10.83
2018-01-15T03:14:07.638Z,9.77
2018-01-15T03:16:35.928Z,10.60
2018-01-15T03:19:04.202Z,10.70
2018-01-15T03:21:32.450Z,10.97
2018-01-15T03:24:02.485Z,10.83
2018-01-15T03:26:30.747Z,9.80
2018-01-15T03:28:59.024Z,9.97
2018-01-15T03:31:27.343Z,11.83
2018-01-15T03:33:56.418Z,9.63
2018-01-15T03:36:24.695Z,11.40
2018-01-15T03:38:52.958Z,9.97
2018-01-15T03:41:21.983Z,11.27
2018-01-15T03:43:50.266Z,10.70
2018-01-15T03:46:18.531Z,10.53
2018-01-15T03:48:47.566Z,11.37
2018-01-15T03:51:15.833Z,11.27
2018-01-15T03:53:44.867Z,12.10
2018-01-15T03:56:13.186Z,12.13
2018-01-15T03:58:41.538Z,12.27
2018-01-15T04:01:09.887Z,11.57
2018-01-15T04:03:38.999Z,11.43
2018-01-15T04:06:08.139Z,11.87
2018-01-15T04:08:36.450Z,12.57
2018-01-15T04:11:04.742Z,11.87
2018-01-15T04:13:33.003Z,11.33
2018-01-15T04:16:01.280Z,11.97
2018-01-15T04:18:30.291Z,11.00
2018-01-15T04:20:59.309Z,10.53
2018-01-15T04:23:27.566Z,10.17
2018-01-15T04:25:55.835Z,11.50
2018-01-15T04:28:24.091Z,11.33
2018-01-15T04:30:52.363Z,12.27
2018-01-15T04:33:20.619Z,11.43
2018-01-15T04:35:48.888Z,10.30
2018-01-15T04:38:17.136Z,10.97
2018-01-15T04:40:45.400Z,11.13
2018-01-15T04:43:14.415Z,11.57
2018-01-15T04:45:43.465Z,12.57
2018-01-15T04:48:11.736Z,11.23
2018-01-15T04:50:41.037Z,10.63
2018-01-15T04:53:09.351Z,11.00
2018-01-15T04:55:37.708Z,10.93
2018-01-15T04:58:06.001Z,10.47
2018-01-15T05:00:35.019Z,12.33
2018-01-15T05:03:03.291Z,11.30
2018-01-15T05:05:32.303Z,11.63
2018-01-15T05:08:00.607Z,10.67
2018-01-15T05:10:28.869Z,11.57
2018-01-15T05:12:57.933Z,10.70
2018-01-15T05:15:26.219Z,10.47
2018-01-15T05:17:54.483Z,10.10
2018-01-15T05:20:22.730Z,10.33
2018-01-15T05:22:51.759Z,10.90
2018-01-15T05:25:20.878Z,8.77
2018-01-15T05:27:49.135Z,10.57
2018-01-15T05:30:18.158Z,10.20
2018-01-15T05:32:47.183Z,10.53
2018-01-15T05:35:15.940Z,10.70
2018-01-15T05:37:44.213Z,10.30
2018-01-15T05:40:12.475Z,10.60
2018-01-15T05:42:40.790Z,10.40
2018-01-15T05:45:09.061Z,9.27
2018-01-15T05:47:37.351Z,10.00
2018-01-15T05:50:05.975Z,10.60
2018-01-15T05:52:34.240Z,10.17
2018-01-15T05:55:02.521Z,10.10
2018-01-15T05:57:30.791Z,9.60
2018-01-15T05:59:59.051Z,10.10
2018-01-15T06:02:27.482Z,10.60
2018-01-15T06:04:55.728Z,8.77
2018-01-15T06:07:24.772Z,9.87
2018-01-15T06:09:53.028Z,9.50
2018-01-15T06:12:21.299Z,10.47
2018-01-15T06:14:49.550Z,10.67
2018-01-15T06:17:17.820Z,9.03
2018-01-15T06:19:46.079Z,9.43
2018-01-15T06:22:14.666Z,9.10
2018-01-15T06:24:42.955Z,9.50
2018-01-15T06:27:11.277Z,8.80
2018-01-15T06:29:40.368Z,9.10
2018-01-15T06:32:08.691Z,9.30
2018-01-15T06:34:36.998Z,10.10
2018-01-15T06:37:05.272Z,10.73
2018-01-15T06:39:33.543Z,9.30
2018-01-15T06:42:02.563Z,10.40
2018-01-15T06:44:30.955Z,8.67
2018-01-15T06:46:59.203Z,10.07
2018-01-15T06:49:27.506Z,9.33
2018-01-15T06:51:55.776Z,9.13
2018-01-15T06:54:24.025Z,8.93
2018-01-15T06:56:52.271Z,9.73
2018-01-15T06:59:21.367Z,10.07
2018-01-15T07:01:49.619Z,10.40
2018-01-15T07:04:17.884Z,9.00
2018-01-15T07:06:46.153Z,9.47
2018-01-15T07:09:15.177Z,8.07
2018-01-15T07:11:43.427Z,8.37
2018-01-15T07:14:11.700Z,8.90
2018-01-15T07:16:40.000Z,8.80
2018-01-15T07:19:08.284Z,9.63
2018-01-15T07:21:37.995Z,8.80
2018-01-15T07:24:06.275Z,8.57
2018-01-15T07:26:34.536Z,9.93
2018-01-15T07:29:02.815Z,9.87
2018-01-15T07:31:31.835Z,9.00
2018-01-15T07:34:00.121Z,9.70
2018-01-15T07:36:29.135Z,8.83
2018-01-15T07:38:57.443Z,9.00
2018-01-15T07:41:25.703Z,8.73
2018-01-15T07:43:53.987Z,8.27
2018-01-15T07:46:22.244Z,9.80
2018-01-15T07:48:50.536Z,9.17
2018-01-15T07:51:18.781Z,8.70
2018-01-15T07:53:47.048Z,8.13
2018-01-15T07:56:16.074Z,8.10
2018-01-15T07:58:45.574Z,9.33
2018-01-15T08:01:14.605Z,9.47
2018-01-15T08:03:42.877Z,9.33
2018-01-15T08:06:11.161Z,9.70
2018-01-15T08:08:40.294Z,9.67
2018-01-15T08:11:08.711Z,8.67
2018-01-15T08:13:37.078Z,9.47
2018-01-15T08:16:05.357Z,9.03
2018-01-15T08:18:33.595Z,9.57
2018-01-15T08:21:02.636Z,9.00
2018-01-15T08:23:30.910Z,8.10
2018-01-15T08:25:59.933Z,8.93
2018-01-15T08:28:28.205Z,8.57
2018-01-15T08:30:57.256Z,8.63
2018-01-15T08:33:25.535Z,9.20
2018-01-15T08:35:53.793Z,9.17
2018-01-15T08:38:22.798Z,8.60
2018-01-15T08:40:51.824Z,9.67
2018-01-15T08:43:20.122Z,8.30
2018-01-15T08:45:48.387Z,8.97
2018-01-15T08:48:17.411Z,8.90
2018-01-15T08:50:45.672Z,8.80
2018-01-15T08:53:14.690Z,8.43
2018-01-15T08:55:43.738Z,8.30
2018-01-15T08:58:12.000Z,8.87
2018-01-15T09:00:40.308Z,7.73
2018-01-15T09:03:08.603Z,8.73
2018-01-15T09:05:36.871Z,8.17
2018-01-15T09:08:05.124Z,9.07
2018-01-15T09:10:34.155Z,8.43
2018-01-15T09:13:02.411Z,8.97
2018-01-15T09:15:30.688Z,9.33
2018-01-15T09:17:58.948Z,8.50
2018-01-15T09:20:27.988Z,7.33
2018-01-15T09:22:56.278Z,9.53
2018-01-15T09:25:24.523Z,8.30
2018-01-15T09:27:52.778Z,7.83
2018-01-15T09:30:21.799Z,8.73
2018-01-15T09:32:50.056Z,8.87
2018-01-15T09:35:18.300Z,10.17
2018-01-15T09:37:46.576Z,8.77
2018-01-15T09:40:14.823Z,8.37
2018-01-15T09:42:43.105Z,9.30
2018-01-15T09:45:11.376Z,8.33
2018-01-15T09:47:40.419Z,8.53
2018-01-15T09:50:08.694Z,9.60
2018-01-15T09:52:36.975Z,7.90
2018-01-15T09:55:05.219Z,7.20
2018-01-15T09:57:33.478Z,8.30
2018-01-15T10:00:02.608Z,7.43
2018-01-15T10:02:31.621Z,8.30
2018-01-15T10:04:59.882Z,7.80
2018-01-15T10:07:28.916Z,8.40
2018-01-15T10:09:57.199Z,7.60
2018-01-15T10:12:25.443Z,7.97
2018-01-15T10:14:53.720Z,7.77
2018-01-15T10:17:21.964Z,8.53
2018-01-15T10:19:51.003Z,7.30
2018-01-15T10:22:19.247Z,7.60
2018-01-15T10:24:48.287Z,6.93
2018-01-15T10:27:16.580Z,7.83
2018-01-15T10:29:44.835Z,7.83
2018-01-15T10:32:13.979Z,8.33
2018-01-15T10:34:42.272Z,7.70
2018-01-15T10:37:10.556Z,7.43
2018-01-15T10:39:38.926Z,7.80
2018-01-15T10:42:07.208Z,7.73
2018-01-15T10:44:35.468Z,7.33
2018-01-15T10:47:06.290Z,7.33
2018-01-15T10:49:34.579Z,7.97
2018-01-15T10:52:02.847Z,6.37
2018-01-15T10:54:31.092Z,7.73
2018-01-15T10:56:59.363Z,7.03
2018-01-15T10:59:27.626Z,6.30
2018-01-15T11:01:56.694Z,6.53
2018-01-15T11:04:25.711Z,6.50
2018-01-15T11:06:54.003Z,6.17
2018-01-15T11:09:22.263Z,6.20
2018-01-15T11:11:50.551Z,5.97
2018-01-15T11:14:18.775Z,6.83
2018-01-15T11:16:47.046Z,6.53
2018-01-15T11:19:15.363Z,6.30
2018-01-15T11:21:43.607Z,5.93
2018-01-15T11:24:12.680Z,6.60
2018-01-15T11:26:40.947Z,6.83
2018-01-15T11:29:09.325Z,7.10
2018-01-15T11:31:37.618Z,7.10
2018-01-15T11:34:05.875Z,7.03
2018-01-15T11:36:34.880Z,6.43
2018-01-15T11:39:03.902Z,6.37
2018-01-15T11:41:32.157Z,6.83
2018-01-15T11:44:00.425Z,7.23
2018-01-15T11:46:28.684Z,6.63
2018-01-15T11:48:56.962Z,6.13
2018-01-15T11:51:25.215Z,6.57
2018-01-15T11:53:53.495Z,5.83
2018-01-15T11:56:21.739Z,5.90
2018-01-15T11:58:50.002Z,6.67
2018-01-15T12:01:18.271Z,6.50
2018-01-15T12:03:46.551Z,6.73
2018-01-15T12:06:14.815Z,6.37
2018-01-15T12:08:43.120Z,6.43
2018-01-15T12:11:11.336Z,6.90
2018-01-15T12:13:39.611Z,6.10
2018-01-15T12:16:09.374Z,5.83
2018-01-15T12:18:37.683Z,6.73
2018-01-15T12:21:06.725Z,6.17
2018-01-15T12:23:35.006Z,6.03
2018-01-15T12:26:03.276Z,6.37
2018-01-15T12:28:31.551Z,6.03
2018-01-15T12:30:59.811Z,6.87
2018-01-15T12:33:28.069Z,6.03
2018-01-15T12:35:56.339Z,7.57
2018-01-15T12:38:24.614Z,6.20
2018-01-15T12:40:52.915Z,6.57
2018-01-15T12:43:21.160Z,6.17
2018-01-15T12:45:50.178Z,5.73
2018-01-15T12:48:18.433Z,6.03
2018-01-15T12:50:46.724Z,6.23
2018-01-15T12:53:14.982Z,6.00
2018-01-15T12:55:43.264Z,5.80
2018-01-15T12:58:11.503Z,6.37
2018-01-15T13:00:40.534Z,5.50
2018-01-15T13:03:08.791Z,5.90
2018-01-15T13:05:49.745Z,6.67
2018-01-15T13:08:35.514Z,6.60
2018-01-15T13:11:03.806Z,5.87
2018-01-15T13:13:32.086Z,6.40
2018-01-15T13:16:00.373Z,6.40
2018-01-15T13:18:29.404Z,5.80
2018-01-15T13:20:57.672Z,5.57
2018-01-15T13:23:25.936Z,5.40
2018-01-15T13:25:54.191Z,6.30
2018-01-15T13:28:22.443Z,5.77
2018-01-15T13:30:50.704Z,6.30
2018-01-15T13:33:18.959Z,6.53
2018-01-15T13:35:47.244Z,6.53
2018-01-15T13:38:15.532Z,6.97
2018-01-15T13:40:43.835Z,7.83
2018-01-15T13:43:12.079Z,6.77
2018-01-15T13:45:40.339Z,6.87
2018-01-15T13:48:08.590Z,6.37
2018-01-15T13:50:36.899Z,6.47
2018-01-15T13:53:05.155Z,7.43
2018-01-15T13:55:34.263Z,7.50
2018-01-15T13:58:02.628Z,7.07
2018-01-15T14:00:30.892Z,6.23
2018-01-15T14:02:59.162Z,7.77
2018-01-15T14:05:27.433Z,8.03
2018-01-15T14:07:55.720Z,7.00
2018-01-15T14:10:23.973Z,6.53
2018-01-15T14:12:52.236Z,5.73
2018-01-15T14:15:21.246Z,7.23
2018-01-15T14:17:50.277Z,7.97
2018-01-15T14:20:18.518Z,7.20
2018-01-15T14:22:46.776Z,7.40
2018-01-15T14:25:15.041Z,7.07
2018-01-15T14:27:43.303Z,7.00
2018-01-15T14:30:11.570Z,6.40
2018-01-15T14:32:41.343Z,6.47
2018-01-15T14:35:09.612Z,6.33
2018-01-15T14:37:38.692Z,6.23
2018-01-15T14:40:06.936Z,6.73
2018-01-15T14:42:35.210Z,6.60
2018-01-15T14:45:03.487Z,6.20
2018-01-15T14:47:32.515Z,5.80
2018-01-15T14:50:00.803Z,5.57
2018-01-15T14:52:29.823Z,5.33
2018-01-15T14:54:58.115Z,5.60
2018-01-15T14:57:26.379Z,5.27
2018-01-15T14:59:55.395Z,5.27
2018-01-15T15:02:23.672Z,5.77
2018-01-15T15:04:52.679Z,5.03
2018-01-15T15:07:21.703Z,4.70
2018-01-15T15:09:49.967Z,5.30
2018-01-15T15:12:19.004Z,4.97
2018-01-15T15:14:47.280Z,5.53
2018-01-15T15:17:15.756Z,5.23
2018-01-15T15:19:43.939Z,5.03
2018-01-15T15:22:12.967Z,5.60
2018-01-15T15:24:41.224Z,5.10
2018-01-15T15:27:09.500Z,5.33
2018-01-15T15:29:37.746Z,5.43
2018-01-15T15:32:06.034Z,5.30
2018-01-15T15:34:35.095Z,5.37
2018-01-15T15:37:03.373Z,6.13
2018-01-15T15:39:31.617Z,6.23
2018-01-15T15:41:59.871Z,6.20
2018-01-15T15:44:28.126Z,6.93
2018-01-15T15:46:56.376Z,6.53
2018-01-15T15:49:24.640Z,6.97
2018-01-15T15:51:53.659Z,7.03
2018-01-15T15:54:22.713Z,7.27
2018-01-15T15:56:50.967Z,6.83
2018-01-15T15:59:19.292Z,7.23
2018-01-15T16:01:47.587Z,7.53
2018-01-15T16:04:15.852Z,7.40
2018-01-15T16:06:44.108Z,8.13
2018-01-15T16:09:13.228Z,6.90
2018-01-15T16:11:41.496Z,7.57
2018-01-15T16:14:10.561Z,7.17
2018-01-15T16:16:38.813Z,7.10
2018-01-15T16:19:07.086Z,6.90
2018-01-15T16:21:36.208Z,7.53
2018-01-15T16:24:04.972Z,7.33
2018-01-15T16:26:33.224Z,6.70
2018-01-15T16:29:01.471Z,7.00
2018-01-15T16:31:30.460Z,6.60
2018-01-15T16:33:58.705Z,6.73
2018-01-15T16:36:26.985Z,7.10
2018-01-15T16:38:55.269Z,6.73
2018-01-15T16:41:23.539Z,6.63
2018-01-15T16:43:52.565Z,6.43
2018-01-15T16:46:21.943Z,6.03
2018-01-15T16:48:50.215Z,6.17
2018-01-15T16:51:18.484Z,6.00
2018-01-15T16:53:46.761Z,6.47
2018-01-15T16:56:15.015Z,6.23
2018-01-15T16:58:43.274Z,5.23
2018-01-15T17:01:11.520Z,5.27
2018-01-15T17:03:39.791Z,5.00
2018-01-15T17:06:08.850Z,4.67
2018-01-15T17:08:37.120Z,5.00
2018-01-15T17:11:05.386Z,4.83
2018-01-15T17:13:33.655Z,5.47
2018-01-15T17:16:02.693Z,5.60
2018-01-15T17:18:30.963Z,5.23
2018-01-15T17:20:59.236Z,5.10
2018-01-15T17:23:28.246Z,4.60
2018-01-15T17:25:57.284Z,5.03
2018-01-15T17:28:25.535Z,4.97
2018-01-15T17:30:54.565Z,4.50
2018-01-15T17:33:22.814Z,5.10
2018-01-15T17:35:51.079Z,5.40
2018-01-15T17:38:19.358Z,4.77
2018-01-15T17:40:47.708Z,5.73
2018-01-15T17:43:16.788Z,5.57
2018-01-15T17:45:45.078Z,6.20
2018-01-15T17:48:13.323Z,5.80
2018-01-15T17:50:41.594Z,5.90
2018-01-15T17:53:09.872Z,6.00
2018-01-15T17:55:38.173Z,6.43
2018-01-15T17:58:06.427Z,6.37
2018-01-15T18:00:34.746Z,5.97
2018-01-15T18:03:02.989Z,5.83
2018-01-15T18:05:31.251Z,6.47
2018-01-15T18:07:59.490Z,5.57
2018-01-15T18:10:28.522Z,6.83
2018-01-15T18:12:56.777Z,5.80
2018-01-15T18:15:25.844Z,6.30
2018-01-15T18:17:54.100Z,6.13
2018-01-15T18:20:22.373Z,5.80
2018-01-15T18:22:51.414Z,6.57
2018-01-15T18:25:19.674Z,6.30
2018-01-15T18:27:48.698Z,6.13
2018-01-15T18:30:17.135Z,6.23
2018-01-15T18:32:45.398Z,6.93
2018-01-15T18:35:13.649Z,6.57
2018-01-15T18:37:42.715Z,6.67
2018-01-15T18:40:11.100Z,6.17
2018-01-15T18:42:39.386Z,6.63
2018-01-15T18:45:07.651Z,5.97
2018-01-15T18:47:35.913Z,6.10
2018-01-15T18:50:05.375Z,6.50
2018-01-15T18:52:33.655Z,5.37
2018-01-15T18:55:01.911Z,7.20
2018-01-15T18:57:31.028Z,6.07
2018-01-15T19:00:00.118Z,6.57
2018-01-15T19:02:29.199Z,6.47
2018-01-15T19:04:57.455Z,6.70
2018-01-15T19:07:25.728Z,5.90
2018-01-15T19:09:54.020Z,7.00
2018-01-15T19:12:22.306Z,6.90
2018-01-15T19:14:50.550Z,6.57
2018-01-15T19:17:18.838Z,7.40
2018-01-15T19:19:47.143Z,6.77
2018-01-15T19:22:16.217Z,6.23
2018-01-15T19:24:44.479Z,6.37
2018-01-15T19:27:12.823Z,7.00
2018-01-15T19:29:41.790Z,6.43
2018-01-15T19:32:10.115Z,6.37
2018-01-15T19:34:43.942Z,5.87
2018-01-15T19:40:10.385Z,5.53
2018-01-15T19:42:38.690Z,6.07
2018-01-15T19:45:12.383Z,5.23
2018-01-15T19:47:46.256Z,5.33
2018-01-15T19:50:20.964Z,4.87
2018-01-15T19:52:54.915Z,4.63
2018-01-15T19:55:28.633Z,4.77
2018-01-15T20:01:08.631Z,4.90
2018-01-15T20:03:42.501Z,4.60
2018-01-15T20:06:16.411Z,4.73
2018-01-15T20:08:50.171Z,4.87
2018-01-15T20:11:18.423Z,4.63
2018-01-15T20:13:46.689Z,4.80
2018-01-15T20:16:15.789Z,5.30
2018-01-15T20:18:44.912Z,4.57
2018-01-15T20:21:13.172Z,4.43
2018-01-15T20:23:41.446Z,4.00
2018-01-15T20:26:09.741Z,4.00
2018-01-15T20:28:38.079Z,4.70
2018-01-15T20:31:06.370Z,8.03
2018-01-15T20:33:34.680Z,4.23
2018-01-15T20:36:02.915Z,8.50
2018-01-15T20:38:32.047Z,5.30
2018-01-15T20:41:00.375Z,4.40
2018-01-15T20:43:28.763Z,3.73
2018-01-15T20:45:57.192Z,3.50
2018-01-15T20:48:25.496Z,4.17
2018-01-15T20:50:54.558Z,4.07
2018-01-15T20:53:22.871Z,4.00
2018-01-15T20:55:51.166Z,3.07
2018-01-15T20:58:19.485Z,3.80
2018-01-15T21:00:48.537Z,3.30
2018-01-15T21:03:16.878Z,3.87
2018-01-15T21:05:45.896Z,3.53
2018-01-15T21:08:14.999Z,2.80
2018-01-15T21:10:43.296Z,3.13
2018-01-15T21:13:11.624Z,3.50
2018-01-15T21:15:39.890Z,3.50
2018-01-15T21:18:08.163Z,3.17
2018-01-15T21:20:36.514Z,3.80
2018-01-15T21:23:04.758Z,3.07
2018-01-15T21:25:33.045Z,3.43
2018-01-15T21:28:01.294Z,3.27
2018-01-15T21:30:30.365Z,3.30
2018-01-15T21:32:58.674Z,3.30
2018-01-15T21:35:26.999Z,3.60
2018-01-15T21:37:55.996Z,3.77
2018-01-15T21:40:25.074Z,3.53
2018-01-15T21:42:53.379Z,3.17
2018-01-15T21:45:21.692Z,3.37
2018-01-15T21:47:50.011Z,3.37
2018-01-15T21:50:18.320Z,3.17
2018-01-15T21:52:46.579Z,3.37
2018-01-15T21:55:14.940Z,3.23
2018-01-15T21:57:44.008Z,3.20
2018-01-15T22:00:12.277Z,2.80
2018-01-15T22:02:40.523Z,3.60
2018-01-15T22:05:10.171Z,3.00
2018-01-15T22:07:38.493Z,3.03
2018-01-15T22:10:06.810Z,2.93
2018-01-15T22:12:35.181Z,2.93
2018-01-15T22:15:04.273Z,2.80
2018-01-15T22:17:32.680Z,2.80
2018-01-15T22:20:01.045Z,2.67
2018-01-15T22:22:29.318Z,2.47
2018-01-15T22:24:57.760Z,2.67
2018-01-15T22:27:26.644Z,2.20
2018-01-15T22:29:55.779Z,3.13
2018-01-15T22:32:24.384Z,2.13
2018-01-15T22:34:52.933Z,2.10
2018-01-15T22:37:22.142Z,2.57
2018-01-15T22:39:51.484Z,2.40
2018-01-15T22:42:21.638Z,2.07
2018-01-15T22:44:50.011Z,1.70
2018-01-15T22:47:19.075Z,2.43
2018-01-15T22:49:48.836Z,2.40
2018-01-15T22:52:17.425Z,2.33
2018-01-15T22:54:46.623Z,2.50
2018-01-15T22:57:15.638Z,2.20
2018-01-15T22:59:44.688Z,2.07
2018-01-15T23:02:12.928Z,2.10
2018-01-15T23:04:42.142Z,1.90
2018-01-15T23:07:11.154Z,1.80
2018-01-15T23:09:40.256Z,1.90
2018-01-15T23:12:09.280Z,1.70
2018-01-15T23:14:37.589Z,1.70
2018-01-15T23:17:05.868Z,1.80
2018-01-15T23:19:34.184Z,2.10
2018-01-15T23:22:02.752Z,1.77
2018-01-15T23:24:31.017Z,1.83
2018-01-15T23:27:00.041Z,1.77
2018-01-15T23:29:28.284Z,2.00
2018-01-15T23:31:56.562Z,1.53
2018-01-15T23:34:24.798Z,1.63
2018-01-15T23:36:53.055Z,1.60
2018-01-15T23:39:21.313Z,1.33
2018-01-15T23:41:49.571Z,1.73
2018-01-15T23:44:17.832Z,1.30
2018-01-15T23:46:46.105Z,1.40
2018-01-15T23:49:14.419Z,1.57
2018-01-15T23:51:42.804Z,1.50
2018-01-15T23:54:11.034Z,1.23
2018-01-15T23:56:39.296Z,1.40
2018-01-15T23:59:07.547Z,1.20
